Time,TemperatureF,DewpointF,PressureIn,WindDirection,WindDirectionDegrees,WindSpeedMPH,WindSpeedGustMPH,Humidity,HourlyPrecipIn,Conditions,Clouds,dailyrainin,SolarRadiationWatts/m^2,SoftwareType,DateUTC
2013-03-02 00:22:00,38.0,36.0,-100.00,NNE,13,1.0,4.0,92,0.00,,,0.01,1.000000,,2013-03-02 05:22:00,
2013-03-02 00:31:00,38.0,36.0,-100.00,NNE,13,1.0,4.0,92,0.00,,,0.01,1.000000,,2013-03-02 05:31:00,
2013-03-02 00:41:00,38.0,36.0,-100.00,NNE,13,1.0,4.0,92,0.00,,,0.01,1.000000,,2013-03-02 05:41:00,
2013-03-02 00:51:00,38.0,36.0,-100.00,NNE,13,1.0,4.0,92,0.00,,,0.01,1.000000,,2013-03-02 05:51:00,
2013-03-02 01:21:00,34.0,34.0,-100.00,East,98,2.0,3.0,98,0.00,,,0.01,1.000000,,2013-03-02 06:21:00,
2013-03-02 01:31:00,34.0,34.0,-100.00,East,98,2.0,3.0,98,0.00,,,0.01,1.000000,,2013-03-02 06:31:00,
2013-03-02 01:41:00,34.0,34.0,-100.00,East,98,2.0,3.0,98,0.00,,,0.01,1.000000,,2013-03-02 06:41:00,
2013-03-02 01:51:00,34.0,34.0,-100.00,East,98,2.0,3.0,98,0.00,,,0.01,1.000000,,2013-03-02 06:51:00,
2013-03-02 02:21:00,32.0,31.0,-100.00,East,85,4.0,4.0,97,0.00,,,0.00,1.000000,,2013-03-02 07:21:00,
2013-03-02 02:32:00,32.0,31.0,-100.00,East,85,4.0,4.0,97,0.00,,,0.00,1.000000,,2013-03-02 07:32:00,
2013-03-02 02:42:00,32.0,31.0,-100.00,East,85,4.0,4.0,97,0.00,,,0.00,1.000000,,2013-03-02 07:42:00,
2013-03-02 02:51:00,32.0,31.0,-100.00,East,85,4.0,4.0,97,0.00,,,0.00,1.000000,,2013-03-02 07:51:00,
2013-03-02 03:21:00,32.0,32.0,-100.00,East,83,5.0,6.0,98,0.00,,,0.00,1.000000,,2013-03-02 08:21:00,
2013-03-02 03:32:00,32.0,32.0,-100.00,East,83,5.0,6.0,98,0.00,,,0.00,1.000000,,2013-03-02 08:32:00,
2013-03-02 03:42:00,32.0,32.0,-100.00,East,83,5.0,6.0,98,0.00,,,0.00,1.000000,,2013-03-02 08:42:00,
2013-03-02 03:52:00,32.0,32.0,-100.00,East,83,5.0,6.0,98,0.00,,,0.00,1.000000,,2013-03-02 08:52:00,
2013-03-02 04:21:00,31.0,31.0,-100.00,East,80,3.0,6.0,98,0.00,,,0.00,1.000000,,2013-03-02 09:21:00,
2013-03-02 04:31:00,31.0,31.0,-100.00,East,80,3.0,6.0,98,0.00,,,0.00,1.000000,,2013-03-02 09:31:00,
2013-03-02 04:42:00,31.0,31.0,-100.00,East,80,3.0,6.0,98,0.00,,,0.00,1.000000,,2013-03-02 09:42:00,
2013-03-02 04:51:00,31.0,31.0,-100.00,East,80,3.0,6.0,98,0.00,,,0.00,1.000000,,2013-03-02 09:51:00,
2013-03-02 05:21:00,30.0,29.0,-100.00,ENE,77,4.0,5.0,98,0.00,,,0.00,1.000000,,2013-03-02 10:21:00,
2013-03-02 05:31:00,30.0,29.0,-100.00,ENE,77,4.0,5.0,98,0.00,,,0.00,1.000000,,2013-03-02 10:31:00,
2013-03-02 05:42:00,30.0,29.0,-100.00,ENE,77,4.0,5.0,98,0.00,,,0.00,1.000000,,2013-03-02 10:42:00,
2013-03-02 05:51:00,30.0,29.0,-100.00,ENE,77,4.0,5.0,98,0.00,,,0.00,1.000000,,2013-03-02 10:51:00,
2013-03-02 06:21:00,30.0,30.0,-100.00,NE,55,4.0,6.0,99,0.00,,,0.00,1.000000,,2013-03-02 11:21:00,
2013-03-02 06:31:00,30.0,30.0,-100.00,NE,55,4.0,6.0,99,0.00,,,0.00,1.000000,,2013-03-02 11:31:00,
2013-03-02 06:41:00,30.0,30.0,-100.00,NE,55,4.0,6.0,99,0.00,,,0.00,1.000000,,2013-03-02 11:41:00,
2013-03-02 06:52:00,30.0,30.0,-100.00,NE,55,4.0,6.0,99,0.00,,,0.00,1.000000,,2013-03-02 11:52:00,
2013-03-02 07:21:00,28.0,28.0,-100.00,East,90,3.0,5.0,98,0.00,,,0.00,1.000000,,2013-03-02 12:21:00,
2013-03-02 07:32:00,28.0,28.0,-100.00,East,90,3.0,5.0,98,0.00,,,0.00,1.000000,,2013-03-02 12:32:00,
2013-03-02 07:43:00,28.0,28.0,-100.00,East,90,3.0,5.0,98,0.00,,,0.00,1.000000,,2013-03-02 12:43:00,
2013-03-02 07:53:00,28.0,28.0,-100.00,East,90,3.0,5.0,98,0.00,,,0.00,1.000000,,2013-03-02 12:53:00,
2013-03-02 08:21:00,29.0,29.0,-100.00,East,88,4.0,6.0,99,0.00,,,0.00,1.000000,,2013-03-02 13:21:00,
2013-03-02 08:31:00,29.0,29.0,-100.00,East,88,4.0,6.0,99,0.00,,,0.00,1.000000,,2013-03-02 13:31:00,
2013-03-02 08:41:00,29.0,29.0,-100.00,East,88,4.0,6.0,99,0.00,,,0.00,1.000000,,2013-03-02 13:41:00,
2013-03-02 08:52:00,29.0,29.0,-100.00,East,88,4.0,6.0,99,0.00,,,0.00,1.000000,,2013-03-02 13:52:00,
2013-03-02 09:21:00,29.0,29.0,-100.00,East,86,2.0,8.0,98,0.00,,,0.00,1.000000,,2013-03-02 14:21:00,
2013-03-02 09:32:00,29.0,29.0,-100.00,East,86,2.0,8.0,98,0.00,,,0.00,1.000000,,2013-03-02 14:32:00,
2013-03-02 09:42:00,29.0,29.0,-100.00,East,86,2.0,8.0,98,0.00,,,0.00,1.000000,,2013-03-02 14:42:00,
2013-03-02 09:52:00,29.0,29.0,-100.00,East,86,2.0,8.0,98,0.00,,,0.00,1.000000,,2013-03-02 14:52:00,
2013-03-02 10:21:00,29.0,29.0,-100.00,NNW,340,1.0,6.0,98,0.00,,,0.00,3.000000,,2013-03-02 15:21:00,
2013-03-02 10:31:00,29.0,29.0,-100.00,NNW,340,1.0,6.0,98,0.00,,,0.00,3.000000,,2013-03-02 15:31:00,
2013-03-02 10:41:00,29.0,29.0,-100.00,NNW,340,1.0,6.0,98,0.00,,,0.00,3.000000,,2013-03-02 15:41:00,
2013-03-02 10:51:00,29.0,29.0,-100.00,NNW,340,1.0,6.0,98,0.00,,,0.00,3.000000,,2013-03-02 15:51:00,
2013-03-02 11:21:00,31.0,30.0,-100.00,East,80,1.0,5.0,96,0.00,,,0.00,60.000000,,2013-03-02 16:21:00,
2013-03-02 11:31:00,31.0,30.0,-100.00,East,80,1.0,5.0,96,0.00,,,0.00,60.000000,,2013-03-02 16:31:00,
2013-03-02 11:41:00,31.0,30.0,-100.00,East,80,1.0,5.0,96,0.00,,,0.00,60.000000,,2013-03-02 16:41:00,
2013-03-02 11:51:00,31.0,30.0,-100.00,East,80,1.0,5.0,96,0.00,,,0.00,60.000000,,2013-03-02 16:51:00,
2013-03-02 12:11:00,33.0,31.0,-100.00,ENE,71,1.0,4.0,93,0.00,,,0.00,120.000000,,2013-03-02 17:11:00,
2013-03-02 12:21:00,33.0,31.0,-100.00,ENE,71,1.0,4.0,93,0.00,,,0.00,120.000000,,2013-03-02 17:21:00,
2013-03-02 12:32:00,33.0,31.0,-100.00,ENE,71,1.0,4.0,93,0.00,,,0.00,120.000000,,2013-03-02 17:32:00,
2013-03-02 12:41:00,33.0,31.0,-100.00,ENE,71,1.0,4.0,93,0.00,,,0.00,120.000000,,2013-03-02 17:41:00,
2013-03-02 12:52:00,33.0,31.0,-100.00,ENE,71,1.0,4.0,93,0.00,,,0.00,120.000000,,2013-03-02 17:52:00,
2013-03-02 13:22:00,39.0,35.0,-100.00,West,260,2.0,3.0,87,0.01,,,0.01,247.000000,,2013-03-02 18:22:00,
2013-03-02 13:31:00,39.0,35.0,-100.00,West,260,2.0,3.0,87,0.01,,,0.01,247.000000,,2013-03-02 18:31:00,
2013-03-02 13:41:00,39.0,35.0,-100.00,West,260,2.0,3.0,87,0.01,,,0.01,247.000000,,2013-03-02 18:41:00,
2013-03-02 13:51:00,39.0,35.0,-100.00,West,260,2.0,3.0,87,0.01,,,0.01,247.000000,,2013-03-02 18:51:00,
2013-03-02 14:21:00,42.0,37.0,-100.00,SW,226,2.0,4.0,81,0.00,,,0.01,332.000000,,2013-03-02 19:21:00,
2013-03-02 14:31:00,42.0,37.0,-100.00,SW,226,2.0,4.0,81,0.00,,,0.01,332.000000,,2013-03-02 19:31:00,
2013-03-02 14:42:00,42.0,37.0,-100.00,SW,226,2.0,4.0,81,0.00,,,0.01,332.000000,,2013-03-02 19:42:00,
2013-03-02 14:52:00,42.0,37.0,-100.00,SW,226,2.0,4.0,81,0.00,,,0.01,332.000000,,2013-03-02 19:52:00,
2013-03-02 15:21:00,45.0,36.0,-100.00,WSW,254,4.0,8.0,71,0.00,,,0.01,451.000000,,2013-03-02 20:21:00,
2013-03-02 15:32:00,45.0,36.0,-100.00,WSW,254,4.0,8.0,71,0.00,,,0.01,451.000000,,2013-03-02 20:32:00,
2013-03-02 15:41:00,45.0,36.0,-100.00,WSW,254,4.0,8.0,71,0.00,,,0.01,451.000000,,2013-03-02 20:41:00,
2013-03-02 15:52:00,45.0,36.0,-100.00,WSW,254,4.0,8.0,71,0.00,,,0.01,451.000000,,2013-03-02 20:52:00,
2013-03-02 16:22:00,47.0,37.0,-100.00,WSW,250,4.0,6.0,67,0.00,,,0.01,410.000000,,2013-03-02 21:22:00,
2013-03-02 16:31:00,47.0,37.0,-100.00,WSW,250,4.0,6.0,67,0.00,,,0.01,410.000000,,2013-03-02 21:31:00,
2013-03-02 16:41:00,47.0,37.0,-100.00,WSW,250,4.0,6.0,67,0.00,,,0.01,410.000000,,2013-03-02 21:41:00,
2013-03-02 16:52:00,47.0,37.0,-100.00,WSW,250,4.0,6.0,67,0.00,,,0.01,410.000000,,2013-03-02 21:52:00,
2013-03-02 17:21:00,49.0,36.0,-100.00,WSW,248,3.0,6.0,61,0.00,,,0.01,432.000000,,2013-03-02 22:21:00,
2013-03-02 17:32:00,49.0,36.0,-100.00,WSW,248,3.0,6.0,61,0.00,,,0.01,432.000000,,2013-03-02 22:32:00,
2013-03-02 17:42:00,49.0,36.0,-100.00,WSW,248,3.0,6.0,61,0.00,,,0.01,432.000000,,2013-03-02 22:42:00,
2013-03-02 17:51:00,49.0,36.0,-100.00,WSW,248,3.0,6.0,61,0.00,,,0.01,432.000000,,2013-03-02 22:51:00,
2013-03-02 18:11:00,48.0,36.0,-100.00,WSW,255,3.0,5.0,64,0.00,,,0.01,249.000000,,2013-03-02 23:11:00,
2013-03-02 18:21:00,48.0,36.0,-100.00,WSW,255,3.0,5.0,64,0.00,,,0.01,249.000000,,2013-03-02 23:21:00,
2013-03-02 18:32:00,48.0,36.0,-100.00,WSW,255,3.0,5.0,64,0.00,,,0.01,249.000000,,2013-03-02 23:32:00,
2013-03-02 18:42:00,48.0,36.0,-100.00,WSW,255,3.0,5.0,64,0.00,,,0.01,249.000000,,2013-03-02 23:42:00,
2013-03-02 18:52:00,48.0,36.0,-100.00,WSW,255,3.0,5.0,64,0.00,,,0.01,249.000000,,2013-03-02 23:52:00,
2013-03-02 19:22:00,48.0,34.0,-100.00,WSW,258,5.0,8.0,59,0.00,,,0.01,184.000000,,2013-03-03 00:22:00,
2013-03-02 19:32:00,48.0,34.0,-100.00,WSW,258,5.0,8.0,59,0.00,,,0.01,184.000000,,2013-03-03 00:32:00,
2013-03-02 19:42:00,48.0,34.0,-100.00,WSW,258,5.0,8.0,59,0.00,,,0.01,184.000000,,2013-03-03 00:42:00,
2013-03-02 19:52:00,48.0,34.0,-100.00,WSW,258,5.0,8.0,59,0.00,,,0.01,184.000000,,2013-03-03 00:52:00,
2013-03-02 20:21:00,46.0,25.0,-100.00,WSW,238,5.0,10.0,44,0.00,,,0.01,79.000000,,2013-03-03 01:21:00,
2013-03-02 20:31:00,46.0,25.0,-100.00,WSW,238,5.0,10.0,44,0.00,,,0.01,79.000000,,2013-03-03 01:31:00,
2013-03-02 20:41:00,46.0,25.0,-100.00,WSW,238,5.0,10.0,44,0.00,,,0.01,79.000000,,2013-03-03 01:41:00,
2013-03-02 20:51:00,46.0,25.0,-100.00,WSW,238,5.0,10.0,44,0.00,,,0.01,79.000000,,2013-03-03 01:51:00,
2013-03-02 21:21:00,44.0,22.0,-100.00,West,279,5.0,8.0,42,0.00,,,0.01,17.000000,,2013-03-03 02:21:00,
2013-03-02 21:31:00,44.0,22.0,-100.00,West,279,5.0,8.0,42,0.00,,,0.01,17.000000,,2013-03-03 02:31:00,
2013-03-02 21:41:00,44.0,22.0,-100.00,West,279,5.0,8.0,42,0.00,,,0.01,17.000000,,2013-03-03 02:41:00,
2013-03-02 21:52:00,44.0,22.0,-100.00,West,279,5.0,8.0,42,0.00,,,0.01,17.000000,,2013-03-03 02:52:00,
2013-03-02 22:21:00,42.0,28.0,-100.00,West,277,5.0,11.0,57,0.00,,,0.01,1.000000,,2013-03-03 03:21:00,
2013-03-02 22:31:00,42.0,28.0,-100.00,West,277,5.0,11.0,57,0.00,,,0.01,1.000000,,2013-03-03 03:31:00,
2013-03-02 22:41:00,42.0,28.0,-100.00,West,277,5.0,11.0,57,0.00,,,0.01,1.000000,,2013-03-03 03:41:00,
2013-03-02 22:51:00,42.0,28.0,-100.00,West,277,5.0,11.0,57,0.00,,,0.01,1.000000,,2013-03-03 03:51:00,
2013-03-02 23:21:00,40.0,29.0,-100.00,ESE,113,1.0,7.0,64,0.00,,,0.01,1.000000,,2013-03-03 04:21:00,
2013-03-02 23:31:00,40.0,29.0,-100.00,ESE,113,1.0,7.0,64,0.00,,,0.01,1.000000,,2013-03-03 04:31:00,
2013-03-02 23:41:00,40.0,29.0,-100.00,ESE,113,1.0,7.0,64,0.00,,,0.01,1.000000,,2013-03-03 04:41:00,
2013-03-02 23:51:00,40.0,29.0,-100.00,ESE,113,1.0,7.0,64,0.00,,,0.01,1.000000,,2013-03-03 04:51:00,